createdAt,value
2022-11-04T04:55:44.735Z,100041.84
2022-11-04T04:58:47.135Z,100041.84
2022-11-04T05:01:49.564Z,100043.44
2022-11-04T05:04:51.983Z,100040.75
2022-11-04T05:07:54.027Z,100043.25
2022-11-04T05:10:56.339Z,100041.44
2022-11-04T05:13:58.543Z,100031.47
2022-11-04T05:17:00.839Z,100039.06
2022-11-04T05:20:03.053Z,100043.66
2022-11-04T05:23:05.330Z,100051.50
2022-11-04T05:26:07.538Z,100054.66
2022-11-04T05:29:10.485Z,100055.97
2022-11-04T05:32:12.596Z,100053.50
2022-11-04T05:35:14.955Z,100057.34
2022-11-04T05:38:17.013Z,100049.50
2022-11-04T05:41:25.665Z,100043.94
2022-11-04T05:44:27.958Z,100042.53
2022-11-04T05:47:30.241Z,100035.88
2022-11-04T05:50:33.331Z,100045.22
2022-11-04T05:53:35.620Z,100039.66
2022-11-04T05:56:37.799Z,100047.00
2022-11-04T05:59:40.163Z,100054.53
2022-11-04T06:02:42.290Z,100057.69
2022-11-04T06:05:44.647Z,100065.13
2022-11-04T06:08:46.693Z,100055.97
2022-11-04T06:11:49.176Z,100064.81
2022-11-04T06:14:51.279Z,100059.75
2022-11-04T06:17:53.563Z,100060.03
2022-11-04T06:21:13.800Z,100058.66
2022-11-04T06:24:16.087Z,100056.78
2022-11-04T06:27:18.186Z,100066.12
2022-11-04T06:30:21.277Z,100068.00
2022-11-04T06:33:23.484Z,100070.91
2022-11-04T06:36:25.828Z,100067.63
2022-11-04T06:39:27.938Z,100063.84
2022-11-04T06:42:30.291Z,100053.69
2022-11-04T06:45:32.307Z,100068.09
2022-11-04T06:48:34.739Z,100068.25
2022-11-04T06:51:36.789Z,100062.16
2022-11-04T06:54:39.636Z,100059.00
2022-11-04T06:57:41.770Z,100068.59
2022-11-04T07:00:44.331Z,100067.50
2022-11-04T07:03:55.348Z,100064.22
2022-11-04T07:06:57.659Z,100063.44
2022-11-04T07:09:59.683Z,100062.62
2022-11-04T07:13:02.006Z,100068.09
2022-11-04T07:16:06.165Z,100072.28
2022-11-04T07:19:08.530Z,100067.69
2022-11-04T07:22:10.667Z,100061.50
2022-11-04T07:25:12.988Z,100068.72
2022-11-04T07:28:15.228Z,100063.75
2022-11-04T07:31:18.115Z,100075.03
2022-11-04T07:34:20.165Z,100065.59
2022-11-04T07:37:22.502Z,100065.31
2022-11-04T07:40:24.523Z,100064.03
2022-11-04T07:43:27.603Z,100065.16
2022-11-04T07:46:29.658Z,100054.16
2022-11-04T07:49:32.033Z,100060.75
2022-11-04T07:52:34.163Z,100055.38
2022-11-04T07:55:43.326Z,100046.97
2022-11-04T07:58:45.801Z,100036.94
2022-11-04T08:01:48.198Z,100036.66
2022-11-04T08:16:52.876Z,100020.69
2022-11-04T08:19:55.502Z,100022.91
2022-11-04T08:22:57.531Z,100016.63
2022-11-04T08:26:00.529Z,100028.75
2022-11-04T08:29:07.877Z,100018.12
2022-11-04T08:32:10.180Z,100011.19
2022-11-04T08:35:12.285Z,100019.87
2022-11-04T08:38:14.604Z,100020.03
2022-11-04T08:41:19.854Z,100013.19
2022-11-04T08:44:22.351Z,100007.66
2022-11-04T08:47:24.388Z,100007.97
2022-11-04T08:50:27.855Z,100004.00
2022-11-04T08:53:30.041Z,100000.31
2022-11-04T08:56:35.975Z,100007.47
2022-11-04T08:59:38.035Z,100007.25
2022-11-04T09:02:40.329Z,100003.97
2022-11-04T09:05:47.291Z,99985.91
2022-11-04T09:08:50.960Z,99978.94
2022-11-04T09:11:53.879Z,99977.34
2022-11-04T09:14:56.210Z,99982.69
2022-11-04T09:17:58.231Z,99979.81
2022-11-04T09:21:02.285Z,99972.28
2022-11-04T09:24:05.012Z,99975.44
2022-11-04T09:27:07.449Z,99980.41
2022-11-04T09:30:10.256Z,99976.63
2022-11-04T09:33:12.608Z,99970.25
2022-11-04T09:36:14.652Z,99972.56
2022-11-04T09:39:17.564Z,99972.97
2022-11-04T09:42:46.916Z,99971.69
2022-11-04T09:45:49.788Z,99965.09
2022-11-04T09:48:55.181Z,99960.03
2022-11-04T09:51:59.390Z,99953.97
2022-11-04T09:55:11.331Z,99952.56
2022-11-04T09:58:14.749Z,99948.78
2022-11-04T10:01:28.219Z,99942.63
2022-11-04T10:04:58.912Z,99936.38
2022-11-04T10:08:03.829Z,99926.22
2022-11-04T10:11:26.142Z,99928.31
2022-11-04T10:14:53.042Z,99900.75
2022-11-04T10:17:58.239Z,99904.16
2022-11-04T10:21:21.442Z,99901.94
2022-11-04T10:24:41.324Z,99901.06
2022-11-04T10:27:46.802Z,99895.19
2022-11-04T10:30:51.820Z,99904.53
2022-11-04T10:34:04.121Z,99901.56
2022-11-04T10:37:11.394Z,99886.84
2022-11-04T10:40:27.028Z,99887.34
2022-11-04T10:43:41.405Z,99897.88
2022-11-04T10:47:27.883Z,99900.56
2022-11-04T10:50:46.266Z,99887.63
2022-11-04T10:53:55.281Z,99883.16
2022-11-04T10:56:58.333Z,99864.06
2022-11-04T11:00:05.221Z,99854.31
2022-11-04T11:03:28.949Z,99847.34
2022-11-04T11:06:33.419Z,99851.44
2022-11-04T11:10:01.493Z,99853.94
2022-11-04T11:13:07.478Z,99846.75
2022-11-04T11:16:17.156Z,99839.19
2022-11-04T11:19:22.046Z,99846.66
2022-11-04T11:22:33.841Z,99846.97
2022-11-04T11:25:42.284Z,99855.31
2022-11-04T11:28:59.177Z,99845.88
2022-11-04T11:32:01.594Z,99844.84
2022-11-04T11:35:10.725Z,99837.28
2022-11-04T11:38:28.681Z,99836.47
2022-11-04T11:41:33.520Z,99836.47
2022-11-04T11:44:47.828Z,99833.37
2022-11-04T11:47:54.851Z,99830.22
2022-11-04T11:50:58.770Z,99820.03
2022-11-04T11:54:17.711Z,99815.12
2022-11-04T11:57:35.926Z,99808.66
2022-11-04T12:01:10.091Z,99797.31
2022-11-04T12:11:33.083Z,99789.97
2022-11-04T12:14:43.581Z,99779.97
2022-11-04T12:18:00.417Z,99774.72
2022-11-04T12:21:21.586Z,99768.72
2022-11-04T12:24:42.482Z,99758.09
2022-11-04T12:27:58.952Z,99753.56
2022-11-04T12:31:16.289Z,99740.63
2022-11-04T12:34:49.095Z,99732.06
2022-11-04T12:38:27.975Z,99725.47
2022-11-04T12:41:58.762Z,99719.03
2022-11-04T12:45:18.555Z,99713.53
2022-11-04T12:48:56.883Z,99714.34
2022-11-04T12:52:37.335Z,99702.06
2022-11-04T12:55:52.091Z,99707.06
2022-11-04T12:59:19.406Z,99704.97
2022-11-04T13:02:31.581Z,99704.03
2022-11-04T13:05:51.661Z,99699.44
2022-11-04T13:09:02.583Z,99691.25
2022-11-04T13:12:31.622Z,99689.75
2022-11-04T13:15:43.197Z,99690.19
2022-11-04T13:18:47.841Z,99687.63
2022-11-04T13:21:50.436Z,99685.75
2022-11-04T13:24:59.241Z,99676.59
2022-11-04T13:28:02.991Z,99679.00
2022-11-04T13:31:34.048Z,99674.56
2022-11-04T13:34:55.263Z,99673.47
2022-11-04T13:38:00.167Z,99673.00
2022-11-04T13:41:21.764Z,99667.28
2022-11-04T13:44:31.835Z,99668.84
2022-11-04T13:47:48.472Z,99671.09
2022-11-04T13:51:00.831Z,99669.19
2022-11-04T13:54:03.825Z,99667.94
2022-11-04T13:57:16.616Z,99666.69
2022-11-04T14:00:24.336Z,99672.38
2022-11-04T14:03:26.544Z,99656.56
2022-11-04T14:07:03.716Z,99660.19
2022-11-04T14:10:45.762Z,99662.91
2022-11-04T14:14:04.761Z,99666.37
2022-11-04T14:17:35.226Z,99661.78
2022-11-04T14:20:37.259Z,99655.28
2022-11-04T14:23:42.097Z,99660.41
2022-11-04T14:26:46.576Z,99639.75
2022-11-04T14:29:52.183Z,99639.72
2022-11-04T14:32:59.458Z,99641.13
2022-11-04T14:36:22.010Z,99637.66
2022-11-04T14:39:28.582Z,99641.31
2022-11-04T14:42:48.732Z,99639.41
2022-11-04T14:45:51.069Z,99635.63
2022-11-04T14:48:57.046Z,99627.72
2022-11-04T14:51:59.256Z,99622.19
2022-11-04T14:55:10.938Z,99615.09
2022-11-04T14:58:25.174Z,99616.84
2022-11-04T15:01:34.638Z,99616.25
2022-11-04T15:04:37.454Z,99610.84
2022-11-04T15:07:40.540Z,99617.19
2022-11-04T15:10:42.583Z,99622.41
2022-11-04T15:13:51.661Z,99622.88
2022-11-04T15:16:57.119Z,99616.50
2022-11-04T15:20:02.093Z,99618.91
2022-11-04T15:23:08.207Z,99616.69
2022-11-04T15:26:30.129Z,99607.50
2022-11-04T15:29:33.357Z,99611.59
2022-11-04T15:32:35.742Z,99608.12
2022-11-04T15:35:43.337Z,99615.88
2022-11-04T15:38:50.311Z,99604.81
2022-11-04T15:42:16.165Z,99607.03
2022-11-04T15:45:39.122Z,99605.44
2022-11-04T15:48:41.254Z,99607.03
2022-11-04T15:51:43.616Z,99605.25
2022-11-04T15:54:48.481Z,99608.12
2022-11-04T15:57:51.720Z,99608.44
2022-11-04T16:00:55.774Z,99611.28
2022-11-04T16:04:00.965Z,99616.69
2022-11-04T16:07:23.318Z,99610.97
2022-11-04T16:10:25.756Z,99614.44
2022-11-04T16:13:27.827Z,99619.81
2022-11-04T16:16:30.189Z,99619.84
2022-11-04T16:19:32.296Z,99623.62
2022-11-04T16:22:38.829Z,99626.63
2022-11-04T16:25:40.916Z,99631.06
2022-11-04T16:28:43.468Z,99618.25
2022-11-04T16:31:45.748Z,99619.19
2022-11-04T16:34:52.776Z,99615.56
2022-11-04T16:37:56.152Z,99616.03
